< < Back
Terminal Aerodrome Forecast


Current Version              Previous Versions:   1  2  3  4  5  6  7  8  9  

Terminal Aerodrome Forecast

649
FTUS44 KHUN 270524
TAFHSV
TAF
KHSV 270524Z 2706/2806 36010G15KT P6SM -RA SCT009 OVC015
     FM271130 35010KT 6SM BR SCT015 OVC090
     FM271700 35010KT P6SM BKN050 OVC100=

Latest METAR

881
SAUS80 KWBC 271500 CCA
MTRHSV
METAR KHSV 271453Z 36011KT 10SM BKN026 BKN250 07/01 A2999 RMK AO2 SLP157
T00720011 51010


USA.gov is the U.S. government's official web portal to all federal, state and local government web resources and services.